createdAt,value
2023-11-24T00:00:42.547Z,96473.03
2023-11-24T00:03:11.693Z,96474.28
2023-11-24T00:05:41.821Z,96474.47
2023-11-24T00:08:11.063Z,96464.91
2023-11-24T00:10:41.212Z,96452.69
2023-11-24T00:13:10.298Z,96440.66
2023-11-24T00:15:39.157Z,96443.53
2023-11-24T00:18:09.365Z,96439.03
2023-11-24T00:20:38.958Z,96422.56
2023-11-24T00:23:07.097Z,96409.50
2023-11-24T00:25:36.973Z,96400.19
2023-11-24T00:28:05.835Z,96386.28
2023-11-24T00:30:34.420Z,96378.34
2023-11-24T00:33:03.226Z,96393.88
2023-11-24T00:35:34.016Z,96393.06
2023-11-24T00:38:10.385Z,96396.53
2023-11-24T00:40:41.916Z,96405.50
2023-11-24T00:43:11.057Z,96418.38
2023-11-24T00:45:39.443Z,96419.78
2023-11-24T00:48:13.346Z,96404.31
2023-11-24T00:50:43.612Z,96390.25
2023-11-24T00:53:13.215Z,96405.34
2023-11-24T00:55:41.204Z,96402.91
2023-11-24T00:58:09.850Z,96407.41
2023-11-24T01:00:39.757Z,96406.00
2023-11-24T01:03:09.179Z,96417.63
2023-11-24T01:05:38.266Z,96402.75
2023-11-24T01:08:06.403Z,96398.25
2023-11-24T01:10:36.784Z,96408.06
2023-11-24T01:13:04.885Z,96417.03
2023-11-24T01:15:32.813Z,96411.94
2023-11-24T01:18:01.412Z,96411.16
2023-11-24T01:20:29.061Z,96389.13
2023-11-24T01:22:57.562Z,96374.47
2023-11-24T01:25:25.350Z,96377.13
2023-11-24T01:27:54.354Z,96381.00
2023-11-24T01:30:22.166Z,96377.56
2023-11-24T01:32:49.898Z,96366.16
2023-11-24T01:35:17.811Z,96365.34
2023-11-24T01:37:45.516Z,96360.25
2023-11-24T01:40:13.719Z,96363.72
2023-11-24T01:42:41.415Z,96349.06
2023-11-24T01:45:11.925Z,96345.63
2023-11-24T01:47:39.892Z,96333.97
2023-11-24T01:50:09.710Z,96334.19
2023-11-24T01:52:38.182Z,96337.88
2023-11-24T01:55:07.343Z,96328.31
2023-11-24T01:57:35.986Z,96325.88
2023-11-24T02:00:05.535Z,96330.59
2023-11-24T02:02:34.646Z,96314.47
2023-11-24T02:05:02.809Z,96309.41
2023-11-24T02:07:31.727Z,96315.28
2023-11-24T02:10:00.223Z,96304.91
2023-11-24T02:12:28.436Z,96299.81
2023-11-24T02:14:56.182Z,96300.63
2023-11-24T02:17:25.371Z,96290.84
2023-11-24T02:19:59.202Z,96283.13
2023-11-24T02:22:27.776Z,96261.31
2023-11-24T02:24:57.122Z,96265.81
2023-11-24T02:27:25.739Z,96268.69
2023-11-24T02:29:53.521Z,96266.84
2023-11-24T02:32:22.159Z,96275.00
2023-11-24T02:34:49.965Z,96279.50
2023-11-24T02:37:19.158Z,96284.81
2023-11-24T02:39:50.042Z,96288.47
2023-11-24T02:42:23.700Z,96284.22
2023-11-24T02:44:52.279Z,96270.19
2023-11-24T02:47:20.295Z,96275.47
2023-11-24T02:49:50.160Z,96268.53
2023-11-24T02:52:18.159Z,96254.72
2023-11-24T02:54:46.417Z,96264.72
2023-11-24T02:57:17.190Z,96247.22
2023-11-24T02:59:48.566Z,96245.59
2023-11-24T03:02:17.658Z,96236.00
2023-11-24T03:04:49.422Z,96231.75
2023-11-24T03:07:18.973Z,96228.06
2023-11-24T03:09:47.128Z,96230.13
2023-11-24T03:12:15.742Z,96226.47
2023-11-24T03:14:50.639Z,96221.16
2023-11-24T03:17:23.835Z,96206.88
2023-11-24T03:19:51.826Z,96201.00
2023-11-24T03:22:19.662Z,96185.91
2023-11-24T03:24:48.277Z,96182.47
2023-11-24T03:27:18.991Z,96203.06
2023-11-24T03:29:49.206Z,96201.44
2023-11-24T03:32:16.902Z,96205.94
2023-11-24T03:34:44.619Z,96201.88
2023-11-24T03:37:12.335Z,96210.63
2023-11-24T03:39:40.406Z,96208.19
2023-11-24T03:42:11.277Z,96203.72
2023-11-24T03:44:40.105Z,96202.91
2023-11-24T03:47:09.456Z,96202.91
2023-11-24T03:49:40.813Z,96204.31
2023-11-24T03:52:08.889Z,96205.53
2023-11-24T03:54:37.705Z,96195.78
2023-11-24T03:57:06.402Z,96191.72
2023-11-24T03:59:35.027Z,96185.63
2023-11-24T04:02:03.063Z,96182.16
2023-11-24T04:04:32.658Z,96179.50
2023-11-24T04:07:01.921Z,96178.94
2023-11-24T04:09:32.137Z,96181.56
2023-11-24T04:12:00.958Z,96176.28
2023-11-24T04:14:30.275Z,96167.75
2023-11-24T04:17:01.198Z,96160.84
2023-11-24T04:19:31.806Z,96158.41
2023-11-24T04:22:01.259Z,96144.38
2023-11-24T04:24:29.327Z,96146.44
2023-11-24T04:26:58.737Z,96137.66
2023-11-24T04:29:26.745Z,96146.44
2023-11-24T04:31:55.946Z,96141.59
2023-11-24T04:34:32.946Z,96134.66
2023-11-24T04:37:04.147Z,96130.38
2023-11-24T04:39:32.619Z,96136.50
2023-11-24T04:42:01.597Z,96132.22
2023-11-24T04:44:29.395Z,96126.13
2023-11-24T04:46:57.673Z,96120.84
2023-11-24T04:49:25.690Z,96133.47
2023-11-24T04:51:54.903Z,96126.56
2023-11-24T04:54:24.281Z,96124.16
2023-11-24T04:56:52.285Z,96129.88
2023-11-24T04:59:22.845Z,96130.69
2023-11-24T05:01:51.663Z,96129.88
2023-11-24T05:04:19.689Z,96125.59
2023-11-24T05:06:47.560Z,96130.31
2023-11-24T05:09:17.986Z,96125.25
2023-11-24T05:11:50.930Z,96127.31
2023-11-24T05:14:18.760Z,96137.06
2023-11-24T05:16:47.591Z,96130.16
2023-11-24T05:19:16.049Z,96132.81
2023-11-24T05:21:44.292Z,96125.91
2023-11-24T05:24:20.813Z,96119.81
2023-11-24T05:26:50.883Z,96119.19
2023-11-24T05:29:19.047Z,96110.47
2023-11-24T05:31:51.344Z,96106.19
2023-11-24T05:34:21.053Z,96101.34
2023-11-24T05:36:51.502Z,96095.25
2023-11-24T05:39:22.216Z,96105.03
2023-11-24T05:41:54.924Z,96104.19
2023-11-24T05:44:22.980Z,96106.03
2023-11-24T05:46:51.042Z,96097.53
2023-11-24T05:49:18.803Z,96098.31
2023-11-24T05:51:46.716Z,96101.97
2023-11-24T05:54:14.444Z,96095.09
2023-11-24T05:56:42.090Z,96100.16
2023-11-24T05:59:11.129Z,96103.84
2023-11-24T06:01:38.903Z,96103.03
2023-11-24T06:04:07.325Z,96104.84
2023-11-24T06:06:36.394Z,96095.09
2023-11-24T06:09:04.433Z,96086.31
2023-11-24T06:11:32.024Z,96070.69
2023-11-24T06:13:59.761Z,96067.00
2023-11-24T06:16:28.751Z,96063.78
2023-11-24T06:18:57.722Z,96070.09
2023-11-24T06:21:26.728Z,96062.16
2023-11-24T06:23:54.381Z,96052.63
2023-11-24T06:26:22.082Z,96040.41
2023-11-24T06:28:49.956Z,96044.06
2023-11-24T06:31:18.024Z,96033.50
2023-11-24T06:33:47.145Z,96040.63
2023-11-24T06:36:15.004Z,96042.47
2023-11-24T06:38:42.714Z,96037.19
2023-11-24T06:41:10.527Z,96041.66
2023-11-24T06:43:38.112Z,96034.53
2023-11-24T06:46:06.959Z,96043.28
2023-11-24T06:48:36.144Z,96044.28
2023-11-24T06:51:06.087Z,96046.94
2023-11-24T06:53:33.812Z,96048.78
2023-11-24T06:56:01.519Z,96040.84
2023-11-24T06:58:29.248Z,96049.00
2023-11-24T07:00:57.981Z,96049.00
2023-11-24T07:03:27.387Z,96041.88
2023-11-24T07:05:55.162Z,96049.81
2023-11-24T07:08:24.295Z,96046.59
2023-11-24T07:10:52.174Z,96047.38
2023-11-24T07:13:19.924Z,96048.22
2023-11-24T07:15:48.970Z,96042.28
2023-11-24T07:18:16.783Z,96036.97
2023-11-24T07:20:48.426Z,96022.97
2023-11-24T07:23:17.564Z,96022.97
2023-11-24T07:25:49.559Z,96022.16
2023-11-24T07:28:18.247Z,96027.44
2023-11-24T07:30:47.153Z,96020.53
2023-11-24T07:33:15.092Z,96027.44
2023-11-24T07:35:42.807Z,96024.81
2023-11-24T07:38:11.418Z,96025.59
2023-11-24T07:40:40.605Z,96020.31
2023-11-24T07:43:09.754Z,96026.41
2023-11-24T07:45:38.425Z,96009.56
2023-11-24T07:48:06.715Z,96006.69
2023-11-24T07:50:34.900Z,96007.47
2023-11-24T07:53:02.600Z,96002.41
2023-11-24T07:55:32.580Z,95995.50
2023-11-24T07:58:01.392Z,95992.03
2023-11-24T08:00:31.872Z,95979.84
2023-11-24T08:02:59.613Z,95976.97
2023-11-24T08:05:27.343Z,95961.94
2023-11-24T08:07:56.415Z,95951.13
2023-11-24T08:10:25.564Z,95941.97
2023-11-24T08:12:55.497Z,95941.25
2023-11-24T08:15:23.793Z,95939.22
2023-11-24T08:17:52.872Z,95927.38
2023-11-24T08:20:22.084Z,95937.72
2023-11-24T08:22:52.223Z,95938.78
2023-11-24T08:25:22.954Z,95954.03
2023-11-24T08:27:50.658Z,95951.41
2023-11-24T08:30:19.217Z,95951.19
2023-11-24T08:32:50.552Z,95943.63
2023-11-24T08:35:25.091Z,95939.94
2023-11-24T08:37:53.876Z,95937.06
2023-11-24T08:40:23.004Z,95937.06
2023-11-24T08:42:51.368Z,95936.50
2023-11-24T08:45:23.559Z,95917.16
2023-11-24T08:47:51.380Z,95920.38
2023-11-24T08:50:20.330Z,95919.72
2023-11-24T08:52:53.409Z,95920.06
2023-11-24T08:55:22.227Z,95928.69
2023-11-24T08:57:52.529Z,95914.66
2023-11-24T09:00:20.966Z,95897.38
2023-11-24T09:02:50.995Z,95891.41
2023-11-24T09:05:18.946Z,95907.22
2023-11-24T09:07:46.992Z,95890.50
2023-11-24T09:10:19.710Z,95891.78
2023-11-24T09:12:51.319Z,95881.88
2023-11-24T09:15:21.580Z,95885.78
2023-11-24T09:17:50.045Z,95879.91
2023-11-24T09:20:18.515Z,95883.22
2023-11-24T09:22:46.429Z,95879.16
2023-11-24T09:25:16.960Z,95881.81
2023-11-24T09:27:45.529Z,95875.84
2023-11-24T09:30:13.846Z,95879.81
2023-11-24T09:32:44.019Z,95871.50
2023-11-24T09:35:12.221Z,95869.31
2023-11-24T09:37:40.053Z,95853.91
2023-11-24T09:40:14.691Z,95850.19
2023-11-24T09:42:46.097Z,95836.63
2023-11-24T09:45:17.603Z,95816.69
2023-11-24T09:47:50.035Z,95805.56
2023-11-24T09:50:24.573Z,95813.38
2023-11-24T09:52:55.817Z,95806.81
2023-11-24T09:55:26.417Z,95788.09
2023-11-24T09:57:58.378Z,95797.28
2023-11-24T10:00:28.602Z,95792.06
2023-11-24T10:02:59.828Z,95801.81
2023-11-24T10:05:28.053Z,95792.06
2023-11-24T10:07:57.601Z,95773.53
2023-11-24T10:10:27.439Z,95772.38
2023-11-24T10:13:01.014Z,95755.47
2023-11-24T10:15:29.631Z,95756.94
2023-11-24T10:17:58.192Z,95745.69
2023-11-24T10:20:31.332Z,95739.59
2023-11-24T10:23:00.740Z,95736.97
2023-11-24T10:25:29.682Z,95727.63
2023-11-24T10:27:59.976Z,95728.44
2023-11-24T10:30:27.806Z,95720.03
2023-11-24T10:32:55.746Z,95706.81
2023-11-24T10:35:23.683Z,95713.16
2023-11-24T10:37:51.817Z,95690.94
2023-11-24T10:40:20.011Z,95686.25
2023-11-24T10:42:51.591Z,95669.78
2023-11-24T10:45:22.794Z,95672.22
2023-11-24T10:48:01.357Z,95656.00
2023-11-24T10:50:30.502Z,95652.34
2023-11-24T10:53:08.775Z,95646.44
2023-11-24T10:55:38.866Z,95629.56
2023-11-24T10:58:08.041Z,95633.22
2023-11-24T11:00:38.779Z,95620.81
2023-11-24T11:03:07.573Z,95618.19
2023-11-24T11:05:47.757Z,95623.69
2023-11-24T11:08:21.797Z,95614.13
2023-11-24T11:11:16.915Z,95606.44
2023-11-24T11:13:45.753Z,95592.41
2023-11-24T11:16:15.206Z,95589.19
2023-11-24T11:18:43.016Z,95576.56
2023-11-24T11:21:12.552Z,95566.22
2023-11-24T11:23:40.944Z,95567.22
2023-11-24T11:26:09.554Z,95556.66
2023-11-24T11:28:38.160Z,95553.44
2023-11-24T11:31:34.523Z,95561.38
2023-11-24T11:34:19.357Z,95543.44
2023-11-24T11:37:02.528Z,95543.44
2023-11-24T11:39:35.913Z,95553.31
2023-11-24T11:42:03.749Z,95538.59
2023-11-24T11:44:35.975Z,95537.47
2023-11-24T11:47:21.187Z,95530.78
2023-11-24T11:49:52.756Z,95512.63
2023-11-24T11:52:21.349Z,95498.91
2023-11-24T11:54:50.974Z,95481.75
2023-11-24T11:57:20.141Z,95480.72
2023-11-24T11:59:48.530Z,95483.94
2023-11-24T12:02:22.047Z,95487.16
2023-11-24T12:04:50.387Z,95488.28
2023-11-24T12:07:20.062Z,95480.13
2023-11-24T12:09:48.800Z,95481.25
2023-11-24T12:12:16.817Z,95470.22
2023-11-24T12:14:44.887Z,95475.50
2023-11-24T12:17:13.476Z,95463.25
2023-11-24T12:19:44.170Z,95466.56
2023-11-24T12:22:12.473Z,95461.97
2023-11-24T12:24:42.130Z,95455.16
2023-11-24T12:27:10.519Z,95445.38
2023-11-24T12:29:42.366Z,95447.47
2023-11-24T12:32:12.548Z,95457.09
2023-11-24T12:34:47.320Z,95450.03
2023-11-24T12:37:15.395Z,95448.69
2023-11-24T12:39:43.285Z,95449.47
2023-11-24T12:42:12.020Z,95452.13
2023-11-24T12:44:41.215Z,95442.34
2023-11-24T12:47:14.793Z,95428.06
2023-11-24T12:50:00.734Z,95426.22
2023-11-24T12:52:33.016Z,95437.38
2023-11-24T12:55:02.818Z,95429.44
2023-11-24T12:57:30.741Z,95424.94
2023-11-24T13:00:14.236Z,95434.81
2023-11-24T13:02:44.568Z,95436.28
2023-11-24T13:05:17.921Z,95450.88
2023-11-24T13:07:46.570Z,95432.31
2023-11-24T13:10:14.633Z,95434.91
2023-11-24T13:12:43.456Z,95431.53
2023-11-24T13:15:12.105Z,95420.53
2023-11-24T13:17:41.224Z,95438.69
2023-11-24T13:20:12.095Z,95430.34
2023-11-24T13:22:45.123Z,95443.34
2023-11-24T13:25:13.627Z,95414.34
2023-11-24T13:27:43.473Z,95420.72
2023-11-24T13:30:14.100Z,95424.06
2023-11-24T13:32:45.449Z,95420.88
2023-11-24T13:35:19.546Z,95437.00
2023-11-24T13:37:51.058Z,95442.31
2023-11-24T13:40:21.932Z,95440.44
2023-11-24T13:42:50.509Z,95439.91
2023-11-24T13:45:22.091Z,95446.66
2023-11-24T13:47:51.517Z,95446.13
2023-11-24T13:50:20.741Z,95451.69
2023-11-24T13:52:57.606Z,95456.66
2023-11-24T13:55:34.756Z,95454.16
2023-11-24T13:58:04.043Z,95467.09
2023-11-24T14:00:32.362Z,95470.22
2023-11-24T14:03:00.414Z,95455.91
2023-11-24T14:05:28.279Z,95457.47
2023-11-24T14:07:58.542Z,95462.75
2023-11-24T14:10:27.591Z,95474.13
2023-11-24T14:12:55.362Z,95487.63
2023-11-24T14:15:24.442Z,95485.22
2023-11-24T14:17:52.298Z,95489.72
2023-11-24T14:20:21.285Z,95486.81
2023-11-24T14:22:49.281Z,95491.31
2023-11-24T14:25:18.429Z,95491.31
2023-11-24T14:27:46.235Z,95485.44
2023-11-24T14:30:15.672Z,95484.66
2023-11-24T14:32:43.674Z,95493.41
2023-11-24T14:35:13.055Z,95482.31
2023-11-24T14:37:41.082Z,95477.50
2023-11-24T14:40:20.044Z,95475.41
2023-11-24T14:42:51.566Z,95475.03
2023-11-24T14:45:21.289Z,95465.91
2023-11-24T14:47:50.705Z,95465.81
2023-11-24T14:50:20.579Z,95462.63
2023-11-24T14:52:48.682Z,95460.94
2023-11-24T14:55:17.958Z,95443.56
2023-11-24T14:57:46.794Z,95441.88
2023-11-24T15:00:30.478Z,95434.31
2023-11-24T15:03:02.289Z,95436.28
2023-11-24T15:05:32.495Z,95439.56
2023-11-24T15:08:08.042Z,95433.28
2023-11-24T15:10:37.411Z,95441.59
2023-11-24T15:13:10.001Z,95445.09
2023-11-24T15:15:41.099Z,95458.75
2023-11-24T15:18:09.889Z,95456.75
2023-11-24T15:20:45.959Z,95462.63
2023-11-24T15:23:25.650Z,95454.44
2023-11-24T15:26:06.230Z,95474.66
2023-11-24T15:28:34.692Z,95472.56
2023-11-24T15:31:07.194Z,95460.13
2023-11-24T15:33:42.770Z,95464.94
2023-11-24T15:36:11.599Z,95455.09
2023-11-24T15:38:39.356Z,95473.19
2023-11-24T15:41:07.552Z,95466.59
2023-11-24T15:43:36.574Z,95467.38
2023-11-24T15:46:06.240Z,95466.59
2023-11-24T15:48:34.345Z,95467.09
2023-11-24T15:51:04.610Z,95456.13
2023-11-24T15:53:33.246Z,95466.47
2023-11-24T15:56:01.080Z,95459.53
2023-11-24T15:58:29.194Z,95464.56
2023-11-24T16:00:58.349Z,95457.63
2023-11-24T16:03:27.676Z,95450.97
2023-11-24T16:05:58.970Z,95446.47
2023-11-24T16:08:33.733Z,95457.09
2023-11-24T16:11:09.846Z,95446.97
2023-11-24T16:13:41.943Z,95439.25
2023-11-24T16:16:09.824Z,95434.19
2023-11-24T16:18:41.223Z,95457.03
2023-11-24T16:21:08.992Z,95460.47
2023-11-24T16:23:36.889Z,95446.63
2023-11-24T16:26:05.814Z,95456.16
2023-11-24T16:28:34.131Z,95460.69
2023-11-24T16:31:01.849Z,95459.06
2023-11-24T16:33:29.998Z,95473.16
2023-11-24T16:36:00.883Z,95473.69
2023-11-24T16:38:29.486Z,95467.34
2023-11-24T16:40:57.266Z,95473.44
2023-11-24T16:43:25.040Z,95477.16
2023-11-24T16:45:52.776Z,95482.69
2023-11-24T16:48:20.760Z,95477.63
2023-11-24T16:50:48.456Z,95486.66
2023-11-24T16:53:17.495Z,95484.50
2023-11-24T16:55:48.098Z,95480.00
2023-11-24T16:58:16.002Z,95473.06
2023-11-24T17:00:44.521Z,95480.47
2023-11-24T17:03:12.747Z,95475.41
2023-11-24T17:05:40.501Z,95476.47
2023-11-24T17:08:10.832Z,95488.13
2023-11-24T17:10:40.090Z,95488.69
2023-11-24T17:13:07.814Z,95494.06
2023-11-24T17:15:35.609Z,95490.91
2023-11-24T17:18:05.936Z,95488.81
2023-11-24T17:20:34.129Z,95488.59
2023-11-24T17:23:01.794Z,95494.69
2023-11-24T17:25:36.548Z,95490.16
2023-11-24T17:28:06.955Z,95491.22
2023-11-24T17:30:35.019Z,95484.06
2023-11-24T17:33:02.819Z,95484.06
2023-11-24T17:35:30.655Z,95491.22
2023-11-24T17:37:59.480Z,95492.53
2023-11-24T17:40:27.783Z,95499.44
2023-11-24T17:42:55.739Z,95491.47
2023-11-24T17:45:24.861Z,95496.22
2023-11-24T17:47:54.597Z,95488.50
2023-11-24T17:50:24.384Z,95489.31
2023-11-24T17:52:52.366Z,95490.59
2023-11-24T17:55:21.186Z,95493.50
2023-11-24T17:57:49.639Z,95495.38
2023-11-24T18:00:21.923Z,95499.59
2023-11-24T18:02:51.400Z,95501.22
2023-11-24T18:05:19.537Z,95499.84
2023-11-24T18:07:47.343Z,95500.09
2023-11-24T18:10:15.366Z,95502.19
2023-11-24T18:12:43.171Z,95510.41
2023-11-24T18:15:14.664Z,95511.19
2023-11-24T18:17:42.696Z,95509.13
2023-11-24T18:20:15.571Z,95515.22
2023-11-24T18:22:43.623Z,95521.56
2023-11-24T18:25:13.266Z,95517.31
2023-11-24T18:27:41.248Z,95523.66
2023-11-24T18:30:10.954Z,95531.31
2023-11-24T18:32:40.089Z,95532.94
2023-11-24T18:35:09.576Z,95544.34
2023-11-24T18:37:39.101Z,95548.84
2023-11-24T18:40:09.442Z,95543.22
2023-11-24T18:42:38.390Z,95564.69
2023-11-24T18:45:07.998Z,95577.94
2023-11-24T18:47:35.807Z,95583.06
2023-11-24T18:50:07.074Z,95565.63
2023-11-24T18:52:35.836Z,95567.75
2023-11-24T18:55:06.716Z,95566.84
2023-11-24T18:57:36.030Z,95563.34
2023-11-24T19:00:05.149Z,95562.44
2023-11-24T19:02:34.354Z,95561.31
2023-11-24T19:05:02.379Z,95569.75
2023-11-24T19:07:30.252Z,95571.06
2023-11-24T19:09:58.663Z,95570.50
2023-11-24T19:12:27.803Z,95569.69
2023-11-24T19:14:55.615Z,95564.56
2023-11-24T19:17:23.382Z,95572.50
2023-11-24T19:19:51.101Z,95561.13
2023-11-24T19:22:19.288Z,95557.63
2023-11-24T19:24:47.035Z,95558.69
2023-11-24T19:27:14.999Z,95560.22
2023-11-24T19:29:44.075Z,95562.56
2023-11-24T19:32:11.898Z,95555.09
2023-11-24T19:34:39.663Z,95556.91
2023-11-24T19:37:08.123Z,95563.53
2023-11-24T19:39:38.206Z,95556.28
2023-11-24T19:42:07.150Z,95540.88
2023-11-24T19:44:39.295Z,95545.13
2023-11-24T19:47:10.318Z,95543.50
2023-11-24T19:49:38.746Z,95545.91
2023-11-24T19:52:08.709Z,95549.59
2023-11-24T19:54:38.987Z,95553.88
2023-11-24T19:57:07.148Z,95559.72
2023-11-24T19:59:34.903Z,95564.25
2023-11-24T20:02:04.165Z,95558.69
2023-11-24T20:04:33.779Z,95564.56
2023-11-24T20:07:01.883Z,95563.22
2023-11-24T20:09:29.738Z,95570.69
2023-11-24T20:11:57.789Z,95575.16
2023-11-24T20:14:25.620Z,95570.16
2023-11-24T20:16:53.510Z,95577.75
2023-11-24T20:19:21.330Z,95568.00
2023-11-24T20:21:52.063Z,95582.47
2023-11-24T20:24:19.800Z,95581.50
2023-11-24T20:26:47.633Z,95578.19
2023-11-24T20:29:17.123Z,95576.66
2023-11-24T20:31:45.977Z,95570.16
2023-11-24T20:34:15.164Z,95576.56
2023-11-24T20:36:43.259Z,95566.03
2023-11-24T20:39:14.855Z,95563.44
2023-11-24T20:41:43.498Z,95566.63
2023-11-24T20:44:12.050Z,95569.06
2023-11-24T20:46:39.819Z,95567.78
2023-11-24T20:49:07.892Z,95572.00
2023-11-24T20:51:35.653Z,95572.59
2023-11-24T20:54:03.511Z,95573.63
2023-11-24T20:56:33.532Z,95581.84
2023-11-24T20:59:01.210Z,95577.31
2023-11-24T21:01:29.147Z,95576.78
2023-11-24T21:03:57.325Z,95572.53
2023-11-24T21:06:25.563Z,95576.47
2023-11-24T21:08:59.249Z,95582.00
2023-11-24T21:11:27.849Z,95587.81
2023-11-24T21:13:57.098Z,95584.38
2023-11-24T21:16:26.650Z,95566.81
2023-11-24T21:18:55.225Z,95576.66
2023-11-24T21:21:23.275Z,95565.69
2023-11-24T21:23:50.935Z,95564.66
2023-11-24T21:26:19.175Z,95567.56
2023-11-24T21:28:46.837Z,95564.91
2023-11-24T21:31:19.715Z,95559.03
2023-11-24T21:33:47.916Z,95562.97
2023-11-24T21:36:16.864Z,95555.03
2023-11-24T21:38:45.046Z,95549.97
2023-11-24T21:41:13.264Z,95547.00
2023-11-24T21:43:41.515Z,95556.00
2023-11-24T21:46:09.423Z,95554.41
2023-11-24T21:48:38.433Z,95560.75
2023-11-24T21:51:06.233Z,95555.94
2023-11-24T21:53:33.964Z,95555.94
2023-11-24T21:56:01.621Z,95553.53
2023-11-24T21:58:29.859Z,95549.00
2023-11-24T22:00:57.615Z,95559.38
2023-11-24T22:03:25.403Z,95553.28
2023-11-24T22:05:55.062Z,95557.22
2023-11-24T22:08:22.716Z,95552.38
2023-11-24T22:10:52.559Z,95546.78
2023-11-24T22:13:20.562Z,95551.78
2023-11-24T22:15:50.215Z,95546.41
2023-11-24T22:18:19.881Z,95554.34
2023-11-24T22:20:47.680Z,95552.50
2023-11-24T22:23:16.762Z,95554.59
2023-11-24T22:25:44.499Z,95555.63
2023-11-24T22:28:12.270Z,95554.03
2023-11-24T22:30:41.169Z,95557.97
2023-11-24T22:33:09.688Z,95561.97
2023-11-24T22:35:38.182Z,95563.28
2023-11-24T22:38:06.998Z,95556.59
2023-11-24T22:40:36.174Z,95546.22
2023-11-24T22:43:04.623Z,95550.75
2023-11-24T22:45:33.126Z,95545.69
2023-11-24T22:48:00.943Z,95558.34
2023-11-24T22:50:28.627Z,95566.56
2023-11-24T22:52:56.374Z,95559.91
2023-11-24T22:55:24.106Z,95540.53
2023-11-24T22:57:53.190Z,95554.25
2023-11-24T23:00:36.119Z,95555.00
2023-11-24T23:03:04.753Z,95548.66
2023-11-24T23:05:32.871Z,95557.91
2023-11-24T23:08:01.044Z,95557.06
2023-11-24T23:10:31.699Z,95562.63
2023-11-24T23:13:02.822Z,95555.97
2023-11-24T23:15:32.353Z,95559.66
2023-11-24T23:18:01.146Z,95556.22
2023-11-24T23:20:29.266Z,95555.63
2023-11-24T23:22:57.003Z,95550.81
2023-11-24T23:25:25.177Z,95553.47
2023-11-24T23:27:52.889Z,95556.59
2023-11-24T23:30:21.996Z,95557.66
2023-11-24T23:32:50.036Z,95561.56
2023-11-24T23:35:18.655Z,95559.59
2023-11-24T23:37:46.484Z,95559.38
2023-11-24T23:40:15.669Z,95559.59
2023-11-24T23:42:45.724Z,95570.19
2023-11-24T23:45:14.845Z,95566.69
2023-11-24T23:47:44.090Z,95561.38
2023-11-24T23:50:12.071Z,95572.69
2023-11-24T23:52:40.044Z,95588.34
2023-11-24T23:55:08.448Z,95581.75
2023-11-24T23:57:38.249Z,95581.69
